Time;durP1;ratioP1;P1;durP2;ratioP2;P2;SDS_P1;SDS_P2;PMS_P1;PMS_P2;Temp;Humidity;BMP_temperature;BMP_pressure;BME280_temperature;BME280_humidity;BME280_pressure;Samples;Min_cycle;Max_cycle;Signal;HPM_P1;HPM_P2
2021/06/07 00:00:48;;;;;;;3.38;3.17;;;;;;;15.33;88.83;95375.53;5056952;28;20529;-66
2021/06/07 00:03:13;;;;;;;2.42;2.22;;;;;;;16.99;88.93;95600.25;5067094;28;20062;-65
2021/06/07 00:05:39;;;;;;;1.95;1.70;;;;;;;17.18;88.52;95623.91;5052330;28;20021;-65
2021/06/07 00:08:05;;;;;;;2.85;2.45;;;;;;;16.10;88.51;95479.81;5067442;28;20037;-65
2021/06/07 00:10:31;;;;;;;4.30;3.45;;;;;;;16.60;88.24;95544.06;5050620;28;20033;-65
2021/06/07 00:12:57;;;;;;;2.22;2.03;;;;;;;15.70;87.68;95396.41;5057701;28;20132;-66
2021/06/07 00:15:24;;;;;;;2.83;2.15;;;;;;;16.11;87.86;95455.31;5067451;28;20067;-65
2021/06/07 00:17:50;;;;;;;3.08;2.88;;;;;;;16.34;87.74;95487.94;5071852;28;20112;-66
2021/06/07 00:20:26;;;;;;;2.45;2.25;;;;;;;15.70;87.96;95413.25;5069682;28;20123;-65
2021/06/07 00:22:52;;;;;;;2.70;2.50;;;;;;;16.98;87.57;95580.66;5067806;28;20052;-66
2021/06/07 00:25:17;;;;;;;3.58;2.92;;;;;;;16.10;87.52;95483.28;5063574;28;20028;-66
2021/06/07 00:27:42;;;;;;;3.45;2.30;;;;;;;15.56;87.00;95367.94;5062507;28;20060;-66
2021/06/07 00:30:08;;;;;;;2.00;1.88;;;;;;;15.76;87.02;95413.84;5046921;28;20025;-65
2021/06/07 00:32:34;;;;;;;1.88;1.63;;;;;;;15.71;87.27;95381.88;5051182;28;20100;-65
2021/06/07 00:34:59;;;;;;;2.20;2.10;;;;;;;17.54;87.00;95666.97;5049335;28;20037;-65
2021/06/07 00:37:25;;;;;;;2.40;2.20;;;;;;;17.54;87.20;95711.91;5049293;28;20041;-66
2021/06/07 00:39:50;;;;;;;3.20;2.20;;;;;;;16.84;86.82;95594.41;5056042;28;20486;-65
2021/06/07 00:42:16;;;;;;;3.05;2.78;;;;;;;17.04;86.87;95603.50;5066948;28;21705;-65
2021/06/07 00:44:41;;;;;;;3.03;2.83;;;;;;;15.57;86.77;95374.09;5071393;28;20025;-66
2021/06/07 00:47:07;;;;;;;2.58;2.38;;;;;;;16.25;86.77;95521.34;5068462;28;20525;-65
2021/06/07 00:49:33;;;;;;;5.55;2.38;;;;;;;16.20;86.76;95483.97;5068687;28;20044;-65
2021/06/07 00:51:59;;;;;;;6.22;2.95;;;;;;;15.85;86.77;95477.03;5069103;28;20036;-65
2021/06/07 00:54:24;;;;;;;5.15;4.75;;;;;;;15.50;86.97;95400.63;5067800;28;20040;-65
2021/06/07 00:56:50;;;;;;;2.72;2.45;;;;;;;16.27;86.86;95548.63;5070939;28;20040;-65
2021/06/07 00:59:15;;;;;;;3.25;2.35;;;;;;;15.71;86.85;95478.41;5049472;28;20048;-65
2021/06/07 01:01:42;;;;;;;3.22;2.75;;;;;;;17.06;87.25;95665.78;5063213;28;20127;-65
2021/06/07 01:04:08;;;;;;;2.70;2.50;;;;;;;17.01;87.19;95667.91;5068311;28;20041;-64
2021/06/07 01:06:34;;;;;;;4.50;3.17;;;;;;;16.97;87.08;95686.56;5068702;28;20654;-69
2021/06/07 01:09:00;;;;;;;5.13;2.90;;;;;;;16.36;87.47;95584.25;5067933;28;20082;-65
2021/06/07 01:11:26;;;;;;;4.70;2.90;;;;;;;15.29;87.58;95443.53;5070616;28;20028;-65
2021/06/07 01:13:52;;;;;;;3.05;2.83;;;;;;;14.47;87.42;95274.38;5067776;28;20135;-65
2021/06/07 01:16:19;;;;;;;4.28;3.97;;;;;;;15.18;87.23;95423.59;5068760;28;20036;-65
2021/06/07 01:18:46;;;;;;;8.75;7.60;;;;;;;14.95;87.37;95378.38;5049968;28;20398;-65
2021/06/07 01:21:15;;;;;;;8.20;3.72;;;;;;;15.85;87.41;95533.34;5068224;28;20021;-65
2021/06/07 01:23:43;;;;;;;4.28;3.88;;;;;;;14.86;87.40;95374.16;5069604;28;20033;-65
2021/06/07 01:26:10;;;;;;;5.45;4.88;;;;;;;14.69;87.56;95362.47;5049734;28;20670;-65
2021/06/07 01:28:36;;;;;;;3.53;3.30;;;;;;;16.54;87.91;95668.13;5062000;28;20558;-65
2021/06/07 01:31:03;;;;;;;4.13;3.80;;;;;;;14.63;87.87;95387.03;5059256;28;20045;-65
2021/06/07 01:33:29;;;;;;;4.30;3.90;;;;;;;14.64;87.79;95383.25;5029630;28;20072;-66
2021/06/07 01:35:57;;;;;;;8.27;3.88;;;;;;;14.51;87.81;95385.84;5050400;28;20029;-65
2021/06/07 01:38:23;;;;;;;3.70;3.40;;;;;;;14.86;87.83;95435.78;5068662;28;20036;-65
2021/06/07 01:40:56;;;;;;;10.90;5.70;;;;;;;14.46;88.36;95399.38;5067485;28;20105;-65
2021/06/07 01:43:22;;;;;;;11.10;9.27;;;;;;;14.91;88.68;95439.03;5067757;28;20101;-65
2021/06/07 01:45:49;;;;;;;7.72;4.90;;;;;;;14.73;88.54;95424.94;5067957;28;20048;-65
2021/06/07 01:48:16;;;;;;;6.18;5.60;;;;;;;14.53;88.45;95405.03;5050043;28;20097;-65
2021/06/07 01:50:43;;;;;;;4.68;4.28;;;;;;;15.07;88.56;95501.66;5070331;28;20028;-66
2021/06/07 01:53:09;;;;;;;6.75;6.25;;;;;;;16.26;88.95;95689.34;5067513;28;20449;-65
2021/06/07 01:55:38;;;;;;;10.13;7.63;;;;;;;16.23;88.76;95661.28;5049087;28;20032;-65
2021/06/07 01:58:05;;;;;;;6.75;6.15;;;;;;;14.65;88.90;95435.72;5067739;28;20098;-65
2021/06/07 02:00:44;;;;;;;9.68;6.93;;;;;;;16.23;89.13;95658.59;5067759;28;20047;-64
2021/06/07 02:03:09;;;;;;;6.07;5.63;;;;;;;15.95;89.15;95636.81;5065416;28;20021;-65
2021/06/07 02:05:39;;;;;;;4.53;4.22;;;;;;;16.27;88.99;95686.31;5049345;28;20021;-65
2021/06/07 02:08:08;;;;;;;9.05;7.97;;;;;;;14.06;88.51;95334.69;5064644;28;20068;-65
2021/06/07 02:10:41;;;;;;;7.63;5.82;;;;;;;14.44;88.54;95371.38;5067264;28;20052;-65
2021/06/07 02:13:08;;;;;;;8.80;8.00;;;;;;;14.19;88.58;95340.97;5067136;28;20671;-65
2021/06/07 02:15:34;;;;;;;5.88;5.43;;;;;;;14.18;88.36;95358.13;5068085;28;20040;-66
2021/06/07 02:18:02;;;;;;;4.07;3.75;;;;;;;16.36;88.90;95648.69;5067867;28;20031;-65
2021/06/07 02:20:27;;;;;;;5.70;4.30;;;;;;;16.30;88.98;95617.78;5070246;28;20083;-64
2021/06/07 02:22:53;;;;;;;6.78;6.18;;;;;;;15.60;88.49;95497.53;5067771;28;20032;-65
2021/06/07 02:25:20;;;;;;;3.58;3.28;;;;;;;15.91;88.27;95533.94;5067516;28;20024;-64
2021/06/07 02:27:47;;;;;;;6.53;5.13;;;;;;;16.48;88.00;95600.44;5068218;28;20131;-65
2021/06/07 02:30:20;;;;;;;4.70;4.32;;;;;;;16.92;87.89;95653.75;5049869;28;20519;-64
2021/06/07 02:32:46;;;;;;;5.57;3.72;;;;;;;16.83;87.35;95641.19;5068616;28;20016;-64
2021/06/07 02:35:15;;;;;;;4.03;3.72;;;;;;;17.00;86.98;95660.97;5068090;28;20045;-64
2021/06/07 02:37:41;;;;;;;4.28;3.55;;;;;;;17.00;86.70;95661.75;5067794;28;20086;-64
2021/06/07 02:40:08;;;;;;;4.10;3.80;;;;;;;16.70;86.67;95609.22;5049432;28;20041;-64
2021/06/07 02:42:35;;;;;;;4.65;3.40;;;;;;;16.36;86.57;95558.19;5067270;28;20033;-64
2021/06/07 02:45:01;;;;;;;4.68;4.38;;;;;;;16.80;86.34;95619.59;5067719;28;20319;-64
2021/06/07 02:47:26;;;;;;;5.43;3.55;;;;;;;16.63;86.25;95594.44;5069673;28;20518;-65
2021/06/07 02:49:51;;;;;;;6.90;4.35;;;;;;;16.94;85.96;95657.69;5067825;28;20065;-65
2021/06/07 02:52:17;;;;;;;4.40;4.00;;;;;;;16.45;85.86;95587.66;5067541;28;20097;-64
2021/06/07 02:54:42;;;;;;;14.15;9.00;;;;;;;16.55;85.94;95613.31;5067238;28;20048;-64
2021/06/07 02:57:08;;;;;;;10.15;7.47;;;;;;;16.25;85.75;95575.81;5067575;28;20025;-64
2021/06/07 02:59:33;;;;;;;8.30;7.35;;;;;;;16.40;86.00;95613.91;5070068;28;20031;-65
2021/06/07 03:01:58;;;;;;;6.47;5.95;;;;;;;16.26;86.31;95600.75;5067853;28;20044;-64
2021/06/07 03:04:24;;;;;;;5.93;4.43;;;;;;;16.26;86.61;95601.53;5049030;28;20037;-64
2021/06/07 03:06:49;;;;;;;4.85;4.55;;;;;;;16.15;86.75;95594.22;5068119;28;20040;-65
2021/06/07 03:09:14;;;;;;;6.63;3.70;;;;;;;16.56;86.60;95647.09;5049767;28;20024;-64
2021/06/07 03:11:40;;;;;;;3.75;3.45;;;;;;;16.22;86.47;95591.78;5071712;28;20066;-64
2021/06/07 03:14:05;;;;;;;4.93;4.45;;;;;;;16.55;86.72;95643.63;5070693;28;20062;-65
2021/06/07 03:16:31;;;;;;;10.40;9.40;;;;;;;16.66;86.95;95653.97;5071309;28;20482;-65
2021/06/07 03:18:56;;;;;;;5.80;4.70;;;;;;;16.02;86.52;95543.19;5070971;28;20410;-64
2021/06/07 03:21:21;;;;;;;8.52;7.63;;;;;;;16.48;86.33;95616.53;5070897;28;20056;-64
2021/06/07 03:23:48;;;;;;;6.05;5.53;;;;;;;16.78;86.31;95656.72;5072488;28;20036;-65
2021/06/07 03:26:13;;;;;;;4.40;4.10;;;;;;;16.41;86.08;95594.78;5070040;28;20044;-64
2021/06/07 03:28:39;;;;;;;4.05;3.75;;;;;;;16.54;85.78;95615.22;5070535;28;20040;-64
2021/06/07 03:31:07;;;;;;;4.80;4.50;;;;;;;16.86;85.62;95651.28;5070815;28;20033;-64
2021/06/07 03:33:33;;;;;;;6.50;5.22;;;;;;;16.50;85.64;95589.34;5052477;28;20028;-64
2021/06/07 03:35:59;;;;;;;5.57;3.95;;;;;;;16.72;85.35;95617.75;5070899;28;20538;-64
2021/06/07 03:38:27;;;;;;;3.47;3.17;;;;;;;17.04;85.16;95656.47;5072600;28;20493;-65
2021/06/07 03:40:55;;;;;;;4.03;3.25;;;;;;;17.01;84.40;95641.81;5070240;28;20127;-65
2021/06/07 03:43:23;;;;;;;3.78;3.20;;;;;;;16.98;84.24;95630.94;5070000;28;20079;-64
2021/06/07 03:45:50;;;;;;;3.65;3.45;;;;;;;17.19;84.26;95663.09;5070327;28;20056;-65
2021/06/07 03:48:16;;;;;;;2.90;2.70;;;;;;;17.17;83.83;95651.91;5052352;28;20485;-65
2021/06/07 03:50:42;;;;;;;2.25;2.05;;;;;;;17.13;83.72;95643.72;5072256;28;20033;-65
2021/06/07 03:53:09;;;;;;;2.42;2.25;;;;;;;17.38;83.57;95669.53;5069765;28;20394;-65
2021/06/07 03:55:35;;;;;;;5.75;2.88;;;;;;;17.13;83.00;95619.53;5069823;28;20486;-65
2021/06/07 03:58:02;;;;;;;2.00;1.90;;;;;;;17.47;82.76;95672.13;5052167;28;20064;-65
2021/06/07 04:00:29;;;;;;;2.30;2.08;;;;;;;17.24;82.88;95625.25;5070247;28;20071;-65
2021/06/07 04:02:56;;;;;;;3.30;1.90;;;;;;;17.31;82.57;95625.50;5071712;28;20016;-65
2021/06/07 04:05:21;;;;;;;2.78;2.15;;;;;;;17.39;82.13;95633.44;5070276;28;20036;-65
2021/06/07 04:07:47;;;;;;;2.55;1.83;;;;;;;17.76;81.90;95675.75;5070331;28;20083;-65
2021/06/07 04:10:19;;;;;;;1.95;1.85;;;;;;;17.52;81.36;95626.19;5062424;28;20032;-65
2021/06/07 04:12:46;;;;;;;2.60;1.63;;;;;;;17.90;80.77;95660.84;5057466;28;20455;-65
2021/06/07 04:15:14;;;;;;;2.10;2.00;;;;;;;17.77;80.25;95632.38;5069931;28;20498;-65
2021/06/07 04:17:40;;;;;;;2.38;1.70;;;;;;;17.73;79.64;95626.09;5071773;28;20115;-65
2021/06/07 04:20:08;;;;;;;1.80;1.70;;;;;;;17.84;79.69;95634.50;5070291;28;20083;-66
2021/06/07 04:22:33;;;;;;;5.35;1.65;;;;;;;18.17;79.36;95664.75;5068932;28;20032;-65
2021/06/07 04:24:59;;;;;;;3.15;1.65;;;;;;;18.27;78.88;95668.88;5064561;28;20716;-65
2021/06/07 04:27:25;;;;;;;2.65;1.75;;;;;;;17.93;78.29;95605.56;5049643;28;20057;-65
2021/06/07 04:29:50;;;;;;;3.08;1.83;;;;;;;18.18;78.05;95628.63;5051914;28;20044;-65
2021/06/07 04:32:16;;;;;;;4.90;1.70;;;;;;;18.41;78.13;95657.72;5049769;28;20447;-65
2021/06/07 04:34:41;;;;;;;3.42;1.30;;;;;;;18.40;77.75;95638.09;5049861;28;20033;-65
2021/06/07 04:37:07;;;;;;;1.83;1.65;;;;;;;18.70;77.02;95670.91;5059419;28;20075;-65
2021/06/07 04:39:33;;;;;;;2.55;1.60;;;;;;;18.72;76.27;95657.09;5064323;28;20044;-65
2021/06/07 04:41:58;;;;;;;1.60;1.50;;;;;;;18.92;76.15;95671.50;5049972;28;20049;-68
2021/06/07 04:44:24;;;;;;;2.40;1.60;;;;;;;18.84;75.48;95648.19;5071394;28;20017;-66
2021/06/07 04:46:50;;;;;;;4.05;1.33;;;;;;;18.95;75.76;95633.06;5069618;28;20458;-64
2021/06/07 04:49:16;;;;;;;3.33;1.23;;;;;;;19.02;75.22;95635.94;5051185;28;20090;-64
2021/06/07 04:51:41;;;;;;;2.88;1.27;;;;;;;19.06;74.68;95631.44;5063074;28;20047;-65
2021/06/07 04:54:07;;;;;;;3.42;1.20;;;;;;;19.25;74.44;95646.94;5048600;28;20099;-64
2021/06/07 04:56:32;;;;;;;2.22;1.05;;;;;;;19.43;74.03;95671.66;5046482;28;20020;-64
2021/06/07 04:58:57;;;;;;;2.15;1.25;;;;;;;19.29;73.83;95644.31;5064359;28;20056;-68
2021/06/07 05:01:23;;;;;;;1.67;0.90;;;;;;;19.54;73.63;95670.00;5055253;28;20033;-65
2021/06/07 05:03:49;;;;;;;1.75;1.10;;;;;;;19.40;73.34;95645.41;5053933;28;20063;-65
2021/06/07 05:06:14;;;;;;;1.48;0.82;;;;;;;19.56;72.89;95665.06;5050748;28;20024;-66
2021/06/07 05:08:40;;;;;;;1.33;1.08;;;;;;;19.63;72.36;95661.78;5070753;28;20037;-64
2021/06/07 05:11:05;;;;;;;1.35;0.90;;;;;;;19.50;72.35;95658.38;5067906;28;20083;-66
2021/06/07 05:13:31;;;;;;;1.85;0.73;;;;;;;18.65;72.08;95498.69;5067740;28;20401;-65
2021/06/07 05:15:59;;;;;;;1.17;1.17;;;;;;;18.86;71.86;95494.97;5050489;28;20131;-65
2021/06/07 05:18:25;;;;;;;1.10;0.95;;;;;;;19.01;71.33;95502.28;5067359;28;20048;-66
2021/06/07 05:20:52;;;;;;;1.25;1.00;;;;;;;20.29;70.66;95706.13;5062342;28;20056;-66
2021/06/07 05:23:17;;;;;;;1.15;0.93;;;;;;;19.10;69.87;95500.19;5048476;28;20056;-66
2021/06/07 05:25:44;;;;;;;1.23;1.10;;;;;;;20.23;69.90;95636.16;5039617;28;20037;-69
2021/06/07 05:28:11;;;;;;;2.15;1.20;;;;;;;18.98;69.54;95422.09;5028076;28;20442;-67
2021/06/07 05:30:39;;;;;;;1.45;0.90;;;;;;;19.32;69.05;95460.22;5034055;28;20044;-67
2021/06/07 05:33:05;;;;;;;2.50;1.00;;;;;;;20.38;68.22;95596.72;5029797;28;20441;-66
2021/06/07 05:35:34;;;;;;;4.03;0.90;;;;;;;20.83;68.01;95648.56;5050031;28;20033;-66
2021/06/07 05:38:00;;;;;;;2.25;1.02;;;;;;;20.93;67.33;95651.47;5048187;28;20041;-67
2021/06/07 05:40:27;;;;;;;4.57;1.10;;;;;;;21.22;66.95;95673.66;5053428;28;20041;-67
2021/06/07 05:42:53;;;;;;;1.98;0.70;;;;;;;21.25;66.56;95673.72;5059891;28;20127;-67
2021/06/07 05:45:19;;;;;;;2.28;0.60;;;;;;;21.09;66.55;95642.47;5051263;28;20124;-67
2021/06/07 05:47:46;;;;;;;2.35;0.70;;;;;;;21.16;65.42;95650.75;5069887;28;20032;-67
2021/06/07 05:50:17;;;;;;;1.00;0.82;;;;;;;21.16;65.41;95646.13;5067665;28;20044;-69
2021/06/07 05:52:48;;;;;;;1.27;1.05;;;;;;;20.46;65.56;95532.78;5067418;28;20064;-71
2021/06/07 05:55:20;;;;;;;2.50;0.80;;;;;;;20.86;65.53;95601.91;5068224;28;20041;-75
2021/06/07 05:57:50;;;;;;;1.60;0.60;;;;;;;21.02;64.29;95610.69;5060897;28;20040;-73
2021/06/07 06:00:18;;;;;;;0.80;0.80;;;;;;;20.49;64.01;95524.00;5050781;28;20471;-77
2021/06/07 06:02:43;;;;;;;0.82;0.70;;;;;;;21.19;63.17;95626.47;5069666;28;20085;-76
2021/06/07 06:05:09;;;;;;;1.88;0.80;;;;;;;20.88;64.01;95559.84;5050262;28;20045;-74
2021/06/07 06:07:35;;;;;;;4.03;0.90;;;;;;;20.07;64.13;95432.13;5047157;28;20040;-75
2021/06/07 06:10:00;;;;;;;1.42;0.75;;;;;;;20.23;63.36;95457.09;5047868;28;20041;-62
2021/06/07 06:12:27;;;;;;;0.93;0.60;;;;;;;21.09;63.48;95577.56;5050786;28;20466;-60
2021/06/07 06:14:53;;;;;;;0.80;0.75;;;;;;;20.21;63.00;95437.75;5052003;28;20071;-60
2021/06/07 06:17:18;;;;;;;1.00;0.40;;;;;;;21.69;62.63;95665.19;5029245;28;20126;-61
2021/06/07 06:19:44;;;;;;;3.85;0.70;;;;;;;21.62;63.02;95684.03;5047233;28;20037;-60
2021/06/07 06:22:09;;;;;;;1.58;0.80;;;;;;;21.71;63.26;95683.81;5056606;28;20040;-65
2021/06/07 06:24:35;;;;;;;2.60;0.43;;;;;;;21.64;62.32;95656.59;5067186;28;20041;-61
2021/06/07 06:27:01;;;;;;;0.50;0.50;;;;;;;21.87;61.74;95676.34;5066755;28;20039;-65
2021/06/07 06:29:27;;;;;;;0.90;0.57;;;;;;;21.87;59.71;95668.22;5069757;28;20031;-61
2021/06/07 06:31:53;;;;;;;0.80;0.50;;;;;;;22.08;58.33;95684.00;5051266;28;20478;-71
2021/06/07 06:34:18;;;;;;;0.40;0.30;;;;;;;21.89;58.99;95657.00;5046857;28;20398;-63
2021/06/07 06:36:44;;;;;;;1.35;0.50;;;;;;;22.18;59.96;95675.28;5047034;28;20713;-62
2021/06/07 06:39:09;;;;;;;0.63;0.55;;;;;;;22.24;59.11;95679.22;5048862;28;20025;-60
2021/06/07 06:41:35;;;;;;;0.60;0.45;;;;;;;22.58;57.22;95698.28;5069285;28;20027;-63
2021/06/07 06:44:03;;;;;;;0.90;0.63;;;;;;;22.59;57.50;95683.56;5046100;28;20095;-62
2021/06/07 06:46:28;;;;;;;1.00;0.60;;;;;;;21.86;58.15;95554.84;5041203;28;20069;-63
2021/06/07 06:48:54;;;;;;;0.93;0.85;;;;;;;22.44;58.42;95614.84;5050872;28;20545;-59
2021/06/07 06:51:19;;;;;;;2.63;1.00;;;;;;;23.10;58.20;95707.47;5034868;28;20088;-59
2021/06/07 06:53:45;;;;;;;2.22;0.98;;;;;;;23.15;57.81;95671.88;5031949;28;20434;-64
2021/06/07 06:56:11;;;;;;;1.23;1.10;;;;;;;23.25;56.72;95654.13;5058202;28;20037;-63
2021/06/07 06:58:36;;;;;;;1.25;0.88;;;;;;;23.00;56.03;95562.41;5056440;28;20067;-61
2021/06/07 07:01:02;;;;;;;0.82;0.82;;;;;;;24.12;55.57;95682.44;5050814;28;20504;-67
2021/06/07 07:03:28;;;;;;;0.80;0.70;;;;;;;24.32;54.56;95677.53;5050576;28;20041;-67
2021/06/07 07:05:55;;;;;;;1.95;0.90;;;;;;;24.44;53.68;95691.97;5035340;28;20074;-66
2021/06/07 07:08:21;;;;;;;1.02;1.00;;;;;;;24.43;52.37;95660.53;5032682;28;20049;-66
2021/06/07 07:10:47;;;;;;;0.95;0.95;;;;;;;24.09;52.41;95609.81;5031880;28;20045;-66
2021/06/07 07:13:13;;;;;;;1.73;0.93;;;;;;;24.66;51.33;95680.03;5030362;28;20036;-70
2021/06/07 07:15:39;;;;;;;1.30;0.90;;;;;;;24.68;52.34;95685.91;5069804;28;20482;-71
2021/06/07 07:18:07;;;;;;;0.88;0.88;;;;;;;24.34;51.79;95642.56;5053016;28;20060;-70
2021/06/07 07:20:33;;;;;;;3.08;1.10;;;;;;;24.48;52.48;95663.66;5072873;28;20021;-65
2021/06/07 07:23:00;;;;;;;1.23;1.13;;;;;;;24.41;51.99;95651.94;5053846;28;20518;-66
2021/06/07 07:25:26;;;;;;;1.02;0.93;;;;;;;24.68;51.55;95712.31;5042737;28;20105;-66
2021/06/07 07:27:51;;;;;;;2.40;1.38;;;;;;;24.24;51.51;95697.66;5058094;28;20127;-59
2021/06/07 07:30:20;;;;;;;1.15;1.05;;;;;;;23.71;52.16;95640.22;5066351;28;20947;-60
2021/06/07 07:32:47;;;;;;;5.57;1.17;;;;;;;23.20;52.80;95583.91;5034297;28;20415;-60
2021/06/07 07:35:13;;;;;;;6.95;1.00;;;;;;;23.95;52.86;95690.44;5068404;28;20514;-61
2021/06/07 07:37:40;;;;;;;1.20;1.10;;;;;;;23.80;53.21;95646.91;5064959;28;20040;-61
2021/06/07 07:40:08;;;;;;;2.50;0.88;;;;;;;23.11;51.94;95508.22;5060829;28;20033;-62
2021/06/07 07:42:35;;;;;;;1.58;0.93;;;;;;;23.40;51.51;95470.47;5041734;28;20076;-63
2021/06/07 07:45:01;;;;;;;0.85;0.85;;;;;;;24.65;50.02;95645.84;5048224;28;20024;-62
2021/06/07 07:47:28;;;;;;;0.88;0.88;;;;;;;25.22;49.25;95659.66;5052295;28;20021;-62
2021/06/07 07:49:54;;;;;;;1.42;0.90;;;;;;;24.88;48.53;95556.56;5049532;28;20064;-61
2021/06/07 07:52:23;;;;;;;1.33;0.93;;;;;;;26.01;47.63;95722.47;5031952;28;20110;-62
2021/06/07 07:54:53;;;;;;;1.10;1.00;;;;;;;25.63;46.89;95681.91;5049815;28;20126;-61
2021/06/07 07:57:20;;;;;;;0.93;0.85;;;;;;;24.80;47.69;95519.59;5046122;28;20535;-61
2021/06/07 07:59:46;;;;;;;0.57;0.57;;;;;;;25.74;47.00;95613.78;5050986;28;20032;-61
2021/06/07 08:02:12;;;;;;;1.75;0.77;;;;;;;26.66;46.25;95724.72;5068206;28;20181;-61
2021/06/07 08:04:38;;;;;;;4.05;1.45;;;;;;;26.98;45.20;95679.41;5069705;28;20119;-62
2021/06/07 08:07:04;;;;;;;3.95;1.45;;;;;;;27.45;44.30;95691.69;5069715;28;20047;-62
2021/06/07 08:09:31;;;;;;;2.03;1.38;;;;;;;26.46;43.21;95548.25;5069725;28;20450;-61
2021/06/07 08:11:59;;;;;;;2.28;0.88;;;;;;;27.36;42.35;95634.75;5056605;28;20025;-61
2021/06/07 08:14:25;;;;;;;1.08;0.75;;;;;;;27.36;42.76;95623.81;5071433;28;20047;-61
2021/06/07 08:16:51;;;;;;;1.05;0.93;;;;;;;26.72;42.67;95574.22;5053723;28;20941;-61
2021/06/07 08:19:16;;;;;;;1.88;0.90;;;;;;;27.27;42.38;95699.97;5060151;28;20044;-61
2021/06/07 08:21:42;;;;;;;1.15;0.90;;;;;;;26.04;43.26;95509.03;5069503;28;20123;-61
2021/06/07 08:24:08;;;;;;;1.38;1.10;;;;;;;25.61;43.01;95488.09;5067546;28;20125;-61
2021/06/07 08:26:33;;;;;;;1.35;0.90;;;;;;;27.36;42.28;95700.31;5051141;28;20017;-61
2021/06/07 08:28:59;;;;;;;1.55;1.13;;;;;;;25.78;43.92;95543.75;5065558;28;20112;-61
2021/06/07 08:31:24;;;;;;;2.95;1.02;;;;;;;26.61;43.11;95607.03;5057221;28;20033;-61
2021/06/07 08:33:49;;;;;;;2.40;0.80;;;;;;;25.63;42.65;95518.44;5047510;28;20044;-62
2021/06/07 08:36:15;;;;;;;0.52;0.47;;;;;;;25.98;44.83;95669.50;5051707;28;20383;-61
2021/06/07 08:38:41;;;;;;;0.60;0.60;;;;;;;27.19;42.72;95723.03;5071458;28;20027;-61
2021/06/07 08:41:08;;;;;;;1.02;0.57;;;;;;;26.35;42.39;95491.00;5047742;28;20466;-61
2021/06/07 08:43:33;;;;;;;0.80;0.50;;;;;;;26.96;42.39;95677.84;5050788;28;20040;-61
2021/06/07 08:45:59;;;;;;;0.52;0.45;;;;;;;26.45;41.12;95498.38;5060287;28;20037;-61
2021/06/07 08:48:24;;;;;;;1.73;0.50;;;;;;;27.51;40.80;95651.03;5048848;28;20090;-61
2021/06/07 08:50:50;;;;;;;1.70;0.55;;;;;;;26.63;40.78;95517.38;5051168;28;20032;-61
2021/06/07 08:53:16;;;;;;;1.40;0.88;;;;;;;26.65;39.89;95520.47;5067334;28;20090;-61
2021/06/07 08:55:41;;;;;;;0.75;0.35;;;;;;;26.33;40.13;95507.00;5053887;28;20063;-61
2021/06/07 08:58:08;;;;;;;0.50;0.50;;;;;;;27.55;41.04;95698.25;5040307;28;20097;-61
2021/06/07 09:00:40;;;;;;;0.70;0.70;;;;;;;27.10;41.81;95733.59;5048720;28;20037;-61
2021/06/07 09:03:13;;;;;;;0.88;0.60;;;;;;;25.77;42.07;95549.59;5048152;28;20048;-61
2021/06/07 09:05:40;;;;;;;2.70;0.60;;;;;;;26.08;44.37;95659.75;5050512;28;20017;-60
2021/06/07 09:08:09;;;;;;;0.75;0.75;;;;;;;24.20;44.94;95454.94;5048187;28;20391;-61
2021/06/07 09:10:40;;;;;;;0.95;0.63;;;;;;;24.74;44.92;95615.59;5048294;28;20490;-61
2021/06/07 09:13:07;;;;;;;0.63;0.57;;;;;;;24.02;45.96;95527.47;5047236;28;20041;-61
2021/06/07 09:15:40;;;;;;;0.75;0.75;;;;;;;24.92;46.68;95716.31;5053106;28;20033;-63
2021/06/07 09:18:09;;;;;;;3.50;0.88;;;;;;;23.53;48.29;95526.00;5068212;28;20028;-61
2021/06/07 09:20:37;;;;;;;1.10;0.88;;;;;;;24.17;48.99;95643.25;5070735;28;20020;-61
2021/06/07 09:23:14;;;;;;;4.40;1.67;;;;;;;23.96;50.96;95640.41;5066211;28;20063;-60
2021/06/07 09:25:44;;;;;;;1.85;0.90;;;;;;;23.38;49.14;95628.25;5067706;28;20119;-60
2021/06/07 09:28:14;;;;;;;1.70;1.23;;;;;;;23.57;50.87;95684.28;5047705;28;20486;-60
2021/06/07 09:30:40;;;;;;;1.15;1.00;;;;;;;23.66;52.02;95716.63;5053574;28;20048;-60
2021/06/07 09:33:25;;;;;;;1.05;0.90;;;;;;;21.73;53.36;95441.31;5067660;28;20028;-61
2021/06/07 09:36:28;;;;;;;2.60;1.20;;;;;;;23.14;54.74;95699.38;5070648;28;20547;-60
2021/06/07 09:39:25;;;;;;;1.80;1.33;;;;;;;21.13;53.94;95433.13;5069399;28;20045;-63
2021/06/07 09:42:03;;;;;;;1.85;0.90;;;;;;;22.88;54.87;95722.72;5067990;28;20079;-60
2021/06/07 09:44:48;;;;;;;2.67;1.10;;;;;;;22.90;55.53;95722.34;5047876;28;20033;-60
2021/06/07 09:47:20;;;;;;;3.08;1.33;;;;;;;22.26;55.74;95652.53;5047779;28;20558;-60
2021/06/07 09:49:53;;;;;;;;;;;;;;;22.81;55.90;95722.59;5063325;28;20052;-60
2021/06/07 09:52:25;;;;;;;1.38;1.05;;;;;;;21.98;55.29;95574.34;5067341;28;20019;-60
2021/06/07 09:55:10;;;;;;;2.05;1.20;;;;;;;23.11;54.72;95727.25;5066397;28;20049;-61
2021/06/07 09:57:44;;;;;;;0.77;0.70;;;;;;;22.22;53.56;95573.16;5062247;28;20033;-62
2021/06/07 10:00:10;;;;;;;1.63;0.80;;;;;;;21.79;53.12;95529.19;5049235;28;20029;-62
2021/06/07 10:02:37;;;;;;;1.05;1.00;;;;;;;21.53;54.07;95442.59;5069613;28;20024;-61
2021/06/07 10:05:04;;;;;;;2.25;1.17;;;;;;;22.40;53.90;95508.31;5067813;28;20040;-62
2021/06/07 10:07:30;;;;;;;2.13;1.20;;;;;;;23.11;53.18;95573.34;5037331;28;20033;-72
2021/06/07 10:10:18;;;;;;;3.35;0.95;;;;;;;24.70;52.12;95724.38;5048514;28;20040;-72
2021/06/07 10:12:45;;;;;;;1.35;0.90;;;;;;;25.23;50.74;95728.50;5047705;28;20059;-72
2021/06/07 10:15:30;;;;;;;3.50;0.90;;;;;;;25.85;49.32;95729.06;5049646;28;20021;-70
2021/06/07 10:17:56;;;;;;;1.45;1.17;;;;;;;25.79;47.00;95651.59;5052591;28;20123;-68
2021/06/07 10:22:47;;;;;;;4.93;3.20;;;;;;;26.86;45.24;95699.72;5071631;28;20102;-66
2021/06/07 10:25:13;;;;;;;2.35;1.25;;;;;;;26.63;45.29;95700.19;5071947;28;20041;-67
2021/06/07 10:27:39;;;;;;;1.95;1.40;;;;;;;27.09;45.67;95716.44;5071393;28;20578;-66
2021/06/07 10:30:18;;;;;;;1.98;0.90;;;;;;;26.61;44.53;95714.22;5071815;28;20028;-67
2021/06/07 10:32:44;;;;;;;1.40;1.30;;;;;;;26.83;44.52;95720.41;5073378;28;20099;-67
2021/06/07 10:35:11;;;;;;;0.88;0.80;;;;;;;27.12;44.22;95718.34;5035851;28;20037;-67
2021/06/07 10:37:57;;;;;;;1.40;1.10;;;;;;;27.20;44.32;95697.28;5065693;28;20064;-67
2021/06/07 10:40:25;;;;;;;1.80;1.10;;;;;;;27.42;43.67;95706.13;5071991;28;20453;-67
2021/06/07 10:42:59;;;;;;;3.20;0.95;;;;;;;27.57;42.79;95717.75;5063337;28;20045;-70
2021/06/07 10:45:29;;;;;;;1.90;1.10;;;;;;;27.61;42.36;95719.28;5055408;28;20461;-67
2021/06/07 10:47:56;;;;;;;1.42;1.00;;;;;;;27.61;42.28;95724.75;5073938;28;20097;-70
2021/06/07 10:50:27;;;;;;;2.25;0.90;;;;;;;27.57;43.35;95704.84;5071298;28;20041;-68
2021/06/07 10:52:57;;;;;;;2.10;1.52;;;;;;;27.56;42.93;95721.66;5070943;28;20037;-69
2021/06/07 10:55:27;;;;;;;3.28;1.05;;;;;;;27.47;43.25;95716.63;5071311;28;20051;-68
2021/06/07 10:57:55;;;;;;;3.40;1.25;;;;;;;27.37;43.46;95707.31;5052913;28;20048;-70
2021/06/07 11:00:24;;;;;;;2.05;1.30;;;;;;;27.42;42.41;95700.66;5071380;28;20044;-68
2021/06/07 11:03:24;;;;;;;1.33;1.00;;;;;;;26.65;43.02;95719.66;5072817;28;20029;-70
2021/06/07 11:05:53;;;;;;;1.23;1.23;;;;;;;26.16;43.96;95696.75;5065906;28;20036;-68
2021/06/07 11:08:29;;;;;;;2.42;1.40;;;;;;;26.49;44.25;95716.59;5070981;28;20589;-68
2021/06/07 11:11:05;;;;;;;1.27;1.17;;;;;;;27.04;43.46;95721.50;5070824;28;20032;-68
2021/06/07 11:13:54;;;;;;;1.48;1.33;;;;;;;27.06;42.65;95714.47;5070102;28;20498;-68
2021/06/07 11:16:30;;;;;;;1.45;1.35;;;;;;;27.60;41.97;95719.69;5071077;28;20048;-68
2021/06/07 11:19:06;;;;;;;1.33;1.17;;;;;;;28.00;41.86;95712.81;5052086;28;20060;-68
2021/06/07 11:21:56;;;;;;;1.95;0.80;;;;;;;28.33;41.65;95713.28;5069903;28;20398;-68
2021/06/07 11:24:29;;;;;;;1.25;1.20;;;;;;;28.39;41.05;95709.72;5055333;22;20048;-73
2021/06/07 11:26:56;;;;;;;1.27;1.00;;;;;;;28.45;40.28;95699.13;5063113;22;22064;-66
2021/06/07 11:29:22;;;;;;;1.60;1.50;;;;;;;25.74;45.61;95716.56;5048399;28;20480;-66
2021/06/07 11:32:10;;;;;;;2.10;2.00;;;;;;;25.55;46.33;95712.28;5042853;28;20034;-66
2021/06/07 11:34:38;;;;;;;1.65;1.55;;;;;;;25.52;45.84;95713.03;5030442;28;20049;-65
2021/06/07 11:37:05;;;;;;;1.60;1.50;;;;;;;25.61;46.20;95702.53;5043576;28;20045;-66
2021/06/07 11:39:42;;;;;;;3.00;1.60;;;;;;;25.95;45.36;95704.91;5032900;28;20396;-67